| time (UTC) | temp F | wind direction | speed MPH | gust MPH | rain 1hr in | rain 24hr in | rain mn in | humidity % | barometer mb |
| 20260506005417 | 53 | 325 | 3.0 | 7.0 | 0.00 | 0.00 | 0.00 | 46 | 1008.2 |
| 20260506004913 | 53 | 1 | 3.0 | 8.0 | 0.00 | 0.00 | 0.00 | 46 | 1008.3 |
| 20260506004406 | 53 | 1 | 3.0 | 8.0 | 0.00 | 0.00 | 0.00 | 45 | 1008.2 |
| 20260506003355 | 53 | 354 | 2.0 | 7.0 | 0.00 | 0.00 | 0.00 | 47 | 1008.0 |
| 20260506002848 | 54 | 350 | 3.0 | 7.0 | 0.00 | 0.00 | 0.00 | 47 | 1008.0 |
| 20260506001836 | 54 | 315 | 5.0 | 11.0 | 0.00 | 0.00 | 0.00 | 44 | 1007.9 |
| 20260506001329 | 54 | 296 | 4.0 | 11.0 | 0.00 | 0.00 | 0.00 | 45 | 1007.9 |
| 20260506000823 | 54 | 291 | 4.0 | 12.0 | 0.00 | 0.00 | 0.00 | 45 | 1007.9 |
| 20260506000317 | 54 | 310 | 4.0 | 12.0 | 0.00 | 0.00 | 0.00 | 45 | 1008.0 |
| 20260505235818 | 54 | 287 | 4.0 | 11.0 | 0.00 | 0.00 | 0.00 | 45 | 1008.0 |
| 20260505235316 | 54 | 315 | 5.0 | 11.0 | 0.00 | 0.00 | 0.00 | 45 | 1008.0 |
| 20260505234816 | 54 | 277 | 5.0 | 13.0 | 0.00 | 0.00 | 0.00 | 44 | 1008.1 |
| 20260505234316 | 55 | 331 | 6.0 | 13.0 | 0.00 | 0.00 | 0.00 | 43 | 1008.1 |
| 20260505232816 | 55 | 28 | 5.0 | 12.0 | 0.00 | 0.00 | 0.00 | 42 | 1008.0 |
| 20260505231817 | 55 | 311 | 5.0 | 16.0 | 0.00 | 0.00 | 0.00 | 44 | 1008.1 |
| 20260505230816 | 55 | 331 | 5.0 | 13.0 | 0.00 | 0.00 | 0.00 | 44 | 1008.2 |
| 20260505230317 | 55 | 343 | 5.0 | 12.0 | 0.00 | 0.00 | 0.00 | 44 | 1008.2 |
| 20260505225817 | 54 | 333 | 6.0 | 14.0 | 0.00 | 0.00 | 0.00 | 43 | 1008.3 |
| 20260505225316 | 54 | 344 | 5.0 | 14.0 | 0.00 | 0.00 | 0.00 | 42 | 1008.3 |
| 20260505224817 | 54 | 323 | 4.0 | 12.0 | 0.00 | 0.00 | 0.00 | 43 | 1008.2 |
| 20260505224318 | 55 | 32 | 6.0 | 13.0 | 0.00 | 0.00 | 0.00 | 42 | 1008.3 |
| 20260505223811 | 55 | 298 | 6.0 | 17.0 | 0.00 | 0.00 | 0.00 | 42 | 1008.4 |
| 20260505223306 | 55 | 254 | 6.0 | 17.0 | 0.00 | 0.00 | 0.00 | 41 | 1008.5 |
| 20260505222759 | 55 | 21 | 5.0 | 13.0 | 0.00 | 0.00 | 0.00 | 43 | 1008.4 |
| 20260505222254 | 55 | 347 | 5.0 | 13.0 | 0.00 | 0.00 | 0.00 | 43 | 1008.4 |
| 20260505221748 | 55 | 269 | 6.0 | 13.0 | 0.00 | 0.00 | 0.00 | 42 | 1008.4 |
| 20260505221249 | 55 | 314 | 7.0 | 15.0 | 0.00 | 0.00 | 0.00 | 41 | 1008.3 |
| 20260505220250 | 55 | 260 | 6.0 | 16.0 | 0.00 | 0.00 | 0.00 | 42 | 1008.4 |
| 20260505215748 | 55 | 316 | 6.0 | 13.0 | 0.00 | 0.00 | 0.00 | 43 | 1008.3 |
| 20260505214748 | 55 | 282 | 6.0 | 14.0 | 0.00 | 0.00 | 0.00 | 40 | 1008.4 |
| 20260505214249 | 55 | 316 | 6.0 | 15.0 | 0.00 | 0.00 | 0.00 | 41 | 1008.5 |
| 20260505213249 | 55 | 304 | 5.0 | 15.0 | 0.00 | 0.00 | 0.00 | 41 | 1008.6 |
| 20260505212247 | 55 | 319 | 7.0 | 16.0 | 0.00 | 0.00 | 0.00 | 41 | 1008.6 |
| 20260505211746 | 55 | 0 | 6.0 | 13.0 | 0.00 | 0.00 | 0.00 | 40 | 1008.5 |
| 20260505211246 | 55 | 298 | 7.0 | 17.0 | 0.00 | 0.00 | 0.00 | 40 | 1008.5 |
| 20260505210746 | 55 | 33 | 7.0 | 17.0 | 0.00 | 0.00 | 0.00 | 39 | 1008.4 |
| 20260505210246 | 55 | 330 | 7.0 | 15.0 | 0.00 | 0.00 | 0.00 | 41 | 1008.5 |
| 20260505205746 | 55 | 315 | 6.0 | 15.0 | 0.00 | 0.00 | 0.00 | 43 | 1008.5 |
| 20260505205246 | 55 | 291 | 5.0 | 14.0 | 0.00 | 0.00 | 0.00 | 40 | 1008.5 |
| 20260505204246 | 55 | 252 | 6.0 | 18.0 | 0.00 | 0.00 | 0.00 | 41 | 1008.6 |
| 20260505203236 | 55 | 301 | 6.0 | 12.0 | 0.00 | 0.00 | 0.00 | 40 | 1008.6 |
| 20260505202728 | 55 | 325 | 7.0 | 18.0 | 0.00 | 0.00 | 0.00 | 41 | 1008.7 |
| 20260505202222 | 55 | 261 | 8.0 | 18.0 | 0.00 | 0.00 | 0.00 | 40 | 1008.7 |
| 20260505201717 | 55 | 290 | 7.0 | 18.0 | 0.00 | 0.00 | 0.00 | 40 | 1008.7 |
| 20260505200705 | 55 | 302 | 7.0 | 17.0 | 0.00 | 0.00 | 0.00 | 39 | 1008.9 |
| 20260505200158 | 55 | 279 | 7.0 | 16.0 | 0.00 | 0.00 | 0.00 | 40 | 1008.9 |
| 20260505195653 | 55 | 303 | 8.0 | 16.0 | 0.00 | 0.00 | 0.00 | 39 | 1009.0 |
| 20260505195146 | 55 | 311 | 7.0 | 18.0 | 0.00 | 0.00 | 0.00 | 39 | 1008.9 |
| 20260505194136 | 55 | 309 | 8.0 | 21.0 | 0.00 | 0.00 | 0.00 | 38 | 1009.1 |
| 20260505193629 | 55 | 280 | 9.0 | 21.0 | 0.00 | 0.00 | 0.00 | 38 | 1009.0 |
| 20260505193123 | 55 | 275 | 8.0 | 18.0 | 0.00 | 0.00 | 0.00 | 38 | 1009.1 |
| 20260505192617 | 55 | 306 | 6.0 | 14.0 | 0.00 | 0.00 | 0.00 | 39 | 1008.9 |
| 20260505192110 | 55 | 340 | 6.0 | 14.0 | 0.00 | 0.00 | 0.00 | 36 | 1009.0 |
| 20260505191605 | 55 | 309 | 6.0 | 13.0 | 0.00 | 0.00 | 0.00 | 36 | 1008.9 |
| 20260505191059 | 55 | 348 | 8.0 | 20.0 | 0.00 | 0.00 | 0.00 | 36 | 1008.9 |
| 20260505190048 | 56 | 238 | 7.0 | 19.0 | 0.00 | 0.00 | 0.00 | 35 | 1009.2 |
| 20260505185540 | 56 | 335 | 6.0 | 17.0 | 0.00 | 0.00 | 0.00 | 36 | 1009.3 |
| 20260505185034 | 56 | 307 | 7.0 | 17.0 | 0.00 | 0.00 | 0.00 | 37 | 1009.1 |
| 20260505184528 | 56 | 25 | 8.0 | 17.0 | 0.00 | 0.00 | 0.00 | 38 | 1009.2 |
| 20260505184022 | 56 | 354 | 6.0 | 16.0 | 0.00 | 0.00 | 0.00 | 39 | 1009.0 |
| 20260505183517 | 55 | 288 | 6.0 | 16.0 | 0.00 | 0.00 | 0.00 | 39 | 1009.1 |
| 20260505182504 | 55 | 294 | 8.0 | 18.0 | 0.00 | 0.00 | 0.00 | 36 | 1009.0 |
| 20260505181453 | 56 | 310 | 7.0 | 15.0 | 0.00 | 0.00 | 0.00 | 37 | 1009.1 |
| 20260505180947 | 56 | 32 | 6.0 | 15.0 | 0.00 | 0.00 | 0.00 | 38 | 1008.8 |
| 20260505180442 | 56 | 35 | 6.0 | 19.0 | 0.00 | 0.00 | 0.00 | 39 | 1008.8 |
| 20260505175935 | 56 | 308 | 8.0 | 19.0 | 0.00 | 0.00 | 0.00 | 37 | 1008.7 |
| 20260505174923 | 56 | 247 | 7.0 | 17.0 | 0.00 | 0.00 | 0.00 | 36 | 1008.8 |
| 20260505173911 | 55 | 90 | 7.0 | 17.0 | 0.00 | 0.00 | 0.00 | 39 | 1008.9 |
| 20260505173404 | 55 | 271 | 7.0 | 18.0 | 0.00 | 0.00 | 0.00 | 40 | 1008.8 |
| 20260505172353 | 55 | 319 | 7.0 | 16.0 | 0.00 | 0.00 | 0.00 | 38 | 1008.8 |
| 20260505171846 | 55 | 307 | 7.0 | 16.0 | 0.00 | 0.00 | 0.00 | 38 | 1008.6 |
| 20260505171342 | 55 | 309 | 6.0 | 16.0 | 0.00 | 0.00 | 0.00 | 40 | 1008.7 |
| 20260505170324 | 55 | 63 | 9.0 | 21.0 | 0.00 | 0.00 | 0.00 | 42 | 1008.7 |
| 20260505165313 | 55 | 320 | 7.0 | 19.0 | 0.00 | 0.00 | 0.00 | 42 | 1008.6 |
| 20260505164807 | 54 | 326 | 7.0 | 16.0 | 0.00 | 0.00 | 0.00 | 43 | 1008.5 |
| 20260505164300 | 54 | 333 | 6.0 | 16.0 | 0.00 | 0.00 | 0.00 | 43 | 1008.6 |
| 20260505163755 | 54 | 317 | 5.0 | 13.0 | 0.00 | 0.00 | 0.00 | 46 | 1008.8 |
| 20260505162754 | 53 | 297 | 8.0 | 18.0 | 0.00 | 0.00 | 0.00 | 44 | 1008.9 |
| 20260505162255 | 53 | 264 | 6.0 | 13.0 | 0.00 | 0.00 | 0.00 | 46 | 1008.9 |
| 20260505161753 | 53 | 302 | 5.0 | 13.0 | 0.00 | 0.00 | 0.00 | 44 | 1008.8 |
| 20260505161254 | 53 | 320 | 6.0 | 14.0 | 0.00 | 0.00 | 0.00 | 47 | 1008.8 |
| 20260505160753 | 52 | 277 | 7.0 | 14.0 | 0.00 | 0.00 | 0.00 | 46 | 1008.7 |
| 20260505160253 | 52 | 136 | 7.0 | 13.0 | 0.00 | 0.00 | 0.00 | 45 | 1008.7 |
| 20260505153254 | 52 | 44 | 6.0 | 16.0 | 0.00 | 0.00 | 0.00 | 46 | 1008.6 |
| 20260505152254 | 52 | 317 | 5.0 | 11.0 | 0.00 | 0.00 | 0.00 | 46 | 1008.5 |
| 20260505151754 | 52 | 337 | 6.0 | 12.0 | 0.00 | 0.00 | 0.00 | 44 | 1008.5 |
| 20260505151249 | 52 | 307 | 7.0 | 15.0 | 0.00 | 0.00 | 0.00 | 44 | 1008.3 |
| 20260505150747 | 51 | 298 | 8.0 | 15.0 | 0.00 | 0.00 | 0.00 | 44 | 1008.5 |
| 20260505150245 | 51 | 345 | 7.0 | 16.0 | 0.00 | 0.00 | 0.00 | 45 | 1008.3 |
| 20260505140246 | 49 | 23 | 4.0 | 9.0 | 0.00 | 0.00 | 0.00 | 58 | 1008.6 |
| 20260505124743 | 47 | 287 | 2.0 | 5.0 | 0.00 | 0.00 | 0.00 | 66 | 1008.7 |
| 20260505124244 | 47 | 297 | 2.0 | 5.0 | 0.00 | 0.00 | 0.00 | 67 | 1008.6 |
| 20260505123744 | 47 | 314 | 2.0 | 4.0 | 0.00 | 0.00 | 0.00 | 68 | 1008.5 |
| 20260505122744 | 47 | 314 | 2.0 | 4.0 | 0.00 | 0.00 | 0.00 | 68 | 1008.8 |
| 20260505122244 | 47 | 277 | 3.0 | 6.0 | 0.00 | 0.00 | 0.00 | 68 | 1008.5 |
| 20260505121743 | 47 | 303 | 3.0 | 6.0 | 0.00 | 0.00 | 0.00 | 68 | 1008.8 |
| 20260505121237 | 47 | 292 | 2.0 | 5.0 | 0.00 | 0.00 | 0.00 | 67 | 1008.8 |
| 20260505120732 | 47 | 298 | 1.0 | 4.0 | 0.00 | 0.00 | 0.00 | 68 | 1008.6 |
| 20260505120225 | 47 | 15 | 1.0 | 2.0 | 0.00 | 0.00 | 0.00 | 67 | 1008.7 |
| 20260505115213 | 47 | 331 | 1.0 | 5.0 | 0.00 | 0.00 | 0.00 | 67 | 1008.2 |
| 20260505114707 | 47 | 127 | 2.0 | 5.0 | 0.00 | 0.00 | 0.00 | 67 | 1008.1 |
| 20260505113656 | 47 | 314 | 2.0 | 5.0 | 0.00 | 0.00 | 0.00 | 67 | 1008.8 |
| 20260505112643 | 47 | 324 | 3.0 | 6.0 | 0.00 | 0.00 | 0.00 | 66 | 1007.9 |
| 20260505112138 | 48 | 15 | 3.0 | 6.0 | 0.00 | 0.00 | 0.00 | 66 | 1007.4 |
| 20260505111632 | 48 | 311 | 2.0 | 5.0 | 0.00 | 0.00 | 0.00 | 65 | 1007.2 |
| 20260505110115 | 48 | 340 | 3.0 | 8.0 | 0.00 | 0.00 | 0.00 | 64 | 1007.1 |
| 20260505102027 | 50 | 4 | 5.0 | 11.0 | 0.00 | 0.00 | 0.00 | 57 | 1007.2 |
| 20260505101521 | 50 | 250 | 4.0 | 11.0 | 0.00 | 0.00 | 0.00 | 57 | 1007.4 |
| 20260505101014 | 50 | 283 | 4.0 | 9.0 | 0.00 | 0.00 | 0.00 | 56 | 1007.4 |
| 20260505100507 | 50 | 289 | 4.0 | 9.0 | 0.00 | 0.00 | 0.00 | 56 | 1006.9 |
| 20260505094949 | 50 | 349 | 4.0 | 7.0 | 0.00 | 0.00 | 0.00 | 55 | 1005.8 |
| 20260505094444 | 50 | 351 | 4.0 | 10.0 | 0.00 | 0.00 | 0.00 | 55 | 1005.5 |
| 20260505093938 | 50 | 30 | 3.0 | 10.0 | 0.00 | 0.00 | 0.00 | 56 | 1005.5 |
| 20260505093432 | 50 | 314 | 3.0 | 8.0 | 0.00 | 0.00 | 0.00 | 56 | 1005.5 |
| 20260505092929 | 50 | 331 | 4.0 | 11.0 | 0.00 | 0.00 | 0.00 | 55 | 1005.7 |
| 20260505091913 | 51 | 341 | 4.0 | 15.0 | 0.00 | 0.00 | 0.00 | 56 | 1005.8 |
| 20260505091408 | 51 | 283 | 6.0 | 15.0 | 0.00 | 0.00 | 0.00 | 55 | 1005.6 |
| 20260505090901 | 51 | 349 | 5.0 | 13.0 | 0.00 | 0.00 | 0.00 | 55 | 1005.8 |
| 20260505090356 | 51 | 309 | 4.0 | 13.0 | 0.00 | 0.00 | 0.00 | 56 | 1005.6 |
| 20260505085849 | 51 | 317 | 4.0 | 9.0 | 0.00 | 0.00 | 0.00 | 56 | 1005.5 |
| 20260505085343 | 51 | 305 | 5.0 | 12.0 | 0.00 | 0.00 | 0.00 | 58 | 1005.9 |
| 20260505084332 | 51 | 8 | 5.0 | 10.0 | 0.00 | 0.00 | 0.00 | 58 | 1005.1 |
| 20260505083827 | 51 | 20 | 6.0 | 13.0 | 0.00 | 0.00 | 0.00 | 59 | 1005.0 |
| 20260505083320 | 51 | 330 | 6.0 | 13.0 | 0.00 | 0.00 | 0.00 | 59 | 1005.0 |
| 20260505082812 | 51 | 333 | 6.0 | 13.0 | 0.00 | 0.00 | 0.00 | 61 | 1004.9 |
| 20260505082312 | 51 | 320 | 5.0 | 13.0 | 0.00 | 0.00 | 0.00 | 62 | 1004.8 |
| 20260505081813 | 51 | 272 | 5.0 | 12.0 | 0.00 | 0.00 | 0.00 | 62 | 1004.6 |
| 20260505081313 | 51 | 302 | 5.0 | 12.0 | 0.00 | 0.00 | 0.00 | 62 | 1004.5 |
| 20260505080813 | 51 | 326 | 4.0 | 11.0 | 0.00 | 0.00 | 0.00 | 63 | 1004.4 |
| 20260505080312 | 51 | 1 | 4.0 | 9.0 | 0.00 | 0.00 | 0.00 | 63 | 1004.1 |
| 20260505074814 | 51 | 351 | 4.0 | 8.0 | 0.00 | 0.00 | 0.00 | 62 | 1003.9 |
| 20260505074313 | 51 | 315 | 4.0 | 8.0 | 0.00 | 0.00 | 0.00 | 61 | 1003.8 |
| 20260505073813 | 52 | 317 | 3.0 | 7.0 | 0.00 | 0.00 | 0.00 | 60 | 1004.0 |
| 20260505073312 | 52 | 283 | 2.0 | 7.0 | 0.00 | 0.00 | 0.00 | 59 | 1003.9 |
| 20260505072813 | 52 | 269 | 2.0 | 5.0 | 0.00 | 0.00 | 0.00 | 59 | 1003.8 |
| 20260505072313 | 52 | 283 | 3.0 | 6.0 | 0.00 | 0.00 | 0.00 | 58 | 1003.5 |
| 20260505071312 | 53 | 275 | 3.0 | 7.0 | 0.00 | 0.00 | 0.00 | 58 | 1003.3 |
| 20260505070812 | 53 | 261 | 4.0 | 9.0 | 0.00 | 0.00 | 0.00 | 58 | 1003.3 |
| 20260505070312 | 53 | 285 | 4.0 | 9.0 | 0.00 | 0.00 | 0.00 | 57 | 1003.2 |
| 20260505065812 | 53 | 286 | 5.0 | 9.0 | 0.00 | 0.00 | 0.00 | 57 | 1003.1 |
| 20260505065306 | 53 | 276 | 4.0 | 8.0 | 0.00 | 0.00 | 0.00 | 56 | 1003.0 |
| 20260505064254 | 54 | 314 | 5.0 | 12.0 | 0.00 | 0.00 | 0.00 | 55 | 1002.8 |
| 20260505063749 | 54 | 326 | 4.0 | 8.0 | 0.00 | 0.00 | 0.00 | 55 | 1002.9 |
| 20260505063242 | 54 | 314 | 4.0 | 8.0 | 0.00 | 0.00 | 0.00 | 55 | 1002.9 |
| 20260505062737 | 55 | 331 | 4.0 | 8.0 | 0.00 | 0.00 | 0.00 | 55 | 1002.8 |
| 20260505062230 | 55 | 285 | 4.0 | 9.0 | 0.00 | 0.00 | 0.00 | 54 | 1002.9 |
| 20260505061725 | 55 | 299 | 5.0 | 14.0 | 0.00 | 0.00 | 0.00 | 53 | 1002.8 |
| 20260505061219 | 55 | 314 | 5.0 | 14.0 | 0.00 | 0.00 | 0.00 | 54 | 1002.9 |
| 20260505060714 | 55 | 312 | 6.0 | 12.0 | 0.00 | 0.00 | 0.00 | 54 | 1002.9 |
| 20260505060207 | 55 | 325 | 6.0 | 12.0 | 0.00 | 0.00 | 0.00 | 54 | 1002.8 |
| 20260505055701 | 55 | 316 | 5.0 | 12.0 | 0.00 | 0.00 | 0.00 | 54 | 1002.8 |
| 20260505055154 | 56 | 300 | 5.0 | 11.0 | 0.00 | 0.00 | 0.00 | 54 | 1002.6 |
| 20260505054648 | 56 | 310 | 4.0 | 9.0 | 0.00 | 0.00 | 0.00 | 53 | 1002.7 |
| 20260505054142 | 56 | 316 | 4.0 | 9.0 | 0.00 | 0.00 | 0.00 | 53 | 1002.7 |
| 20260505053637 | 56 | 287 | 4.0 | 9.0 | 0.00 | 0.00 | 0.00 | 52 | 1002.7 |
| 20260505053130 | 56 | 317 | 5.0 | 10.0 | 0.00 | 0.00 | 0.00 | 52 | 1002.6 |
| 20260505052623 | 56 | 327 | 5.0 | 11.0 | 0.00 | 0.00 | 0.00 | 51 | 1002.5 |
| 20260505052116 | 56 | 257 | 5.0 | 11.0 | 0.00 | 0.00 | 0.00 | 50 | 1002.5 |
| 20260505051611 | 57 | 269 | 5.0 | 12.0 | 0.00 | 0.00 | 0.00 | 50 | 1002.3 |
| 20260505051104 | 57 | 15 | 6.0 | 12.0 | 0.00 | 0.00 | 0.00 | 50 | 1002.5 |
| 20260505050559 | 57 | 288 | 6.0 | 13.0 | 0.00 | 0.00 | 0.00 | 50 | 1002.4 |
| 20260505041556 | 60 | 281 | 6.0 | 13.0 | 0.00 | 0.00 | 0.00 | 49 | 1001.9 |
| 20260505041057 | 60 | 303 | 5.0 | 11.0 | 0.00 | 0.00 | 0.00 | 49 | 1001.9 |
| 20260505040556 | 60 | 314 | 4.0 | 9.0 | 0.00 | 0.00 | 0.00 | 50 | 1001.7 |
| 20260505035556 | 61 | 304 | 5.0 | 12.0 | 0.00 | 0.00 | 0.00 | 50 | 1001.8 |
| 20260505035055 | 61 | 300 | 5.0 | 10.0 | 0.00 | 0.00 | 0.00 | 50 | 1001.9 |
| 20260505034055 | 62 | 287 | 5.0 | 12.0 | 0.00 | 0.00 | 0.00 | 49 | 1001.7 |
| 20260505033555 | 62 | 269 | 5.0 | 12.0 | 0.00 | 0.00 | 0.00 | 49 | 1001.6 |
| 20260505033055 | 62 | 307 | 5.0 | 11.0 | 0.00 | 0.00 | 0.00 | 49 | 1001.5 |
| 20260505032556 | 63 | 271 | 5.0 | 12.0 | 0.00 | 0.00 | 0.00 | 49 | 1001.3 |
| 20260505032055 | 63 | 294 | 5.0 | 12.0 | 0.00 | 0.00 | 0.00 | 48 | 1001.1 |
| 20260505031055 | 64 | 322 | 5.0 | 13.0 | 0.00 | 0.00 | 0.00 | 48 | 1001.0 |
| 20260505030554 | 64 | 274 | 6.0 | 14.0 | 0.00 | 0.00 | 0.00 | 48 | 1001.0 |
| 20260505025555 | 64 | 309 | 6.0 | 15.0 | 0.00 | 0.00 | 0.00 | 50 | 1000.9 |
| 20260505024555 | 65 | 281 | 6.0 | 15.0 | 0.00 | 0.00 | 0.00 | 54 | 1001.0 |
| 20260505024055 | 65 | 346 | 7.0 | 15.0 | 0.00 | 0.00 | 0.00 | 55 | 1001.1 |
| 20260505023555 | 65 | 310 | 6.0 | 14.0 | 0.00 | 0.00 | 0.00 | 57 | 1000.9 |
| 20260505023054 | 65 | 319 | 6.0 | 15.0 | 0.00 | 0.00 | 0.00 | 61 | 1000.6 |
| 20260505021049 | 65 | 282 | 6.0 | 15.0 | 0.00 | 0.00 | 0.00 | 66 | 1000.0 |
| 20260505015531 | 65 | 285 | 4.0 | 11.0 | 0.00 | 0.00 | 0.00 | 66 | 999.6 |
| 20260505015025 | 65 | 247 | 4.0 | 12.0 | 0.00 | 0.00 | 0.00 | 66 | 999.4 |
| 20260505014520 | 65 | 221 | 4.0 | 12.0 | 0.00 | 0.00 | 0.00 | 66 | 999.3 |
| 20260505013507 | 65 | 269 | 4.0 | 9.0 | 0.00 | 0.00 | 0.00 | 67 | 999.0 |
| 20260505012455 | 66 | 216 | 5.0 | 12.0 | 0.00 | 0.00 | 0.00 | 67 | 998.7 |
| 20260505011950 | 67 | 226 | 6.0 | 16.0 | 0.00 | 0.00 | 0.00 | 66 | 998.6 |
| 20260505010939 | 68 | 171 | 9.0 | 19.0 | 0.00 | 0.00 | 0.00 | 61 | 998.7 |
| 20260505010432 | 69 | 223 | 6.0 | 15.0 | 0.00 | 0.00 | 0.00 | 57 | 998.5 |
| 20260505005928 | 69 | 179 | 6.0 | 11.0 | 0.00 | 0.00 | 0.00 | 57 | 998.4 |